createdAt,value
2018-05-21T00:01:54.244Z,60.30
2018-05-21T00:04:20.713Z,60.30
2018-05-21T00:06:47.081Z,58.70
2018-05-21T00:09:14.669Z,58.80
2018-05-21T00:11:41.303Z,58.80
2018-05-21T00:14:07.711Z,58.70
2018-05-21T00:16:34.850Z,57.30
2018-05-21T00:19:02.019Z,56.80
2018-05-21T00:21:29.229Z,56.60
2018-05-21T00:23:55.761Z,56.50
2018-05-21T00:26:22.216Z,56.90
2018-05-21T00:28:50.322Z,56.20
2018-05-21T00:31:16.927Z,56.20
2018-05-21T00:33:43.405Z,55.90
2018-05-21T00:36:09.803Z,55.80
2018-05-21T00:38:36.338Z,55.30
2018-05-21T00:41:03.469Z,55.80
2018-05-21T00:43:30.149Z,55.70
2018-05-21T00:45:56.529Z,55.90
2018-05-21T00:48:22.930Z,56.00
2018-05-21T00:50:49.374Z,56.50
2018-05-21T00:53:15.754Z,56.00
2018-05-21T00:55:42.904Z,58.40
2018-05-21T00:58:09.321Z,57.80
2018-05-21T01:00:35.701Z,58.40
2018-05-21T01:03:02.083Z,60.10
2018-05-21T01:05:29.213Z,61.60
2018-05-21T01:07:55.622Z,61.50
2018-05-21T01:10:21.985Z,62.50
2018-05-21T01:12:48.467Z,62.00
2018-05-21T01:15:14.891Z,62.00
2018-05-21T01:17:42.039Z,63.40
2018-05-21T01:20:09.220Z,62.60
2018-05-21T01:22:35.627Z,62.60
2018-05-21T01:25:02.793Z,63.60
2018-05-21T01:27:29.236Z,63.60
2018-05-21T01:29:55.587Z,63.40
2018-05-21T01:32:22.007Z,63.20
2018-05-21T01:34:48.402Z,63.50
2018-05-21T01:37:15.597Z,63.90
2018-05-21T01:39:42.035Z,63.80
2018-05-21T01:42:08.452Z,64.10
2018-05-21T01:44:34.865Z,64.50
2018-05-21T01:47:01.616Z,64.60
2018-05-21T01:49:27.990Z,64.00
2018-05-21T01:51:54.475Z,65.00
2018-05-21T01:54:21.012Z,64.30
2018-05-21T01:56:47.400Z,64.10
2018-05-21T01:59:13.802Z,64.50
2018-05-21T02:01:40.243Z,63.80
2018-05-21T02:04:08.275Z,64.00
2018-05-21T02:06:36.670Z,59.90
2018-05-21T02:09:07.317Z,59.90
2018-05-21T02:11:33.773Z,59.90
2018-05-21T02:14:00.195Z,59.50
2018-05-21T02:16:26.637Z,60.20
2018-05-21T02:18:53.050Z,62.60
2018-05-21T02:21:19.476Z,61.40
2018-05-21T02:23:46.130Z,62.60
2018-05-21T02:26:12.501Z,62.50
2018-05-21T02:28:39.709Z,62.90
2018-05-21T02:31:06.265Z,62.80
2018-05-21T02:33:32.753Z,62.90
2018-05-21T02:35:59.243Z,62.70
2018-05-21T02:38:26.406Z,63.60
2018-05-21T02:40:53.010Z,63.60
2018-05-21T02:43:19.422Z,61.60
2018-05-21T02:45:45.878Z,60.40
2018-05-21T02:48:12.684Z,60.50
2018-05-21T02:50:39.140Z,59.80
2018-05-21T02:53:05.714Z,59.30
2018-05-21T02:55:32.113Z,59.50
2018-05-21T02:57:58.503Z,60.10
2018-05-21T03:00:24.919Z,62.00
2018-05-21T03:02:51.557Z,61.10
2018-05-21T03:05:18.785Z,62.60
2018-05-21T03:07:45.128Z,62.40
2018-05-21T03:10:12.987Z,63.30
2018-05-21T03:12:39.424Z,62.60
2018-05-21T03:15:06.573Z,63.00
2018-05-21T03:17:33.610Z,62.50
2018-05-21T03:20:00.051Z,61.20
2018-05-21T03:22:26.455Z,62.50
2018-05-21T03:24:52.860Z,62.50
2018-05-21T03:27:19.234Z,64.00
2018-05-21T03:29:45.663Z,64.10
2018-05-21T03:32:12.084Z,64.10
2018-05-21T03:34:38.554Z,63.80
2018-05-21T03:37:05.231Z,61.50
2018-05-21T03:39:31.612Z,63.50
2018-05-21T03:41:58.042Z,64.40
2018-05-21T03:44:24.472Z,64.10
2018-05-21T03:46:51.271Z,63.90
2018-05-21T03:49:17.903Z,63.70
2018-05-21T03:51:44.438Z,63.30
2018-05-21T03:54:11.068Z,63.70
2018-05-21T03:56:37.465Z,64.60
2018-05-21T03:59:22.606Z,63.70
2018-05-21T04:02:08.136Z,64.20
2018-05-21T04:04:34.607Z,64.50
2018-05-21T04:07:00.982Z,64.70
2018-05-21T04:09:27.434Z,63.90
2018-05-21T04:11:53.894Z,64.90
2018-05-21T04:14:20.257Z,66.10
2018-05-21T04:16:46.624Z,64.60
2018-05-21T04:19:13.782Z,62.20
2018-05-21T04:21:40.907Z,63.40
2018-05-21T04:24:07.500Z,63.30
2018-05-21T04:26:34.729Z,62.20
2018-05-21T04:29:01.954Z,62.50
2018-05-21T04:31:28.340Z,62.40
2018-05-21T04:33:55.155Z,62.00
2018-05-21T04:36:22.385Z,62.50
2018-05-21T04:38:48.765Z,62.50
2018-05-21T04:41:15.343Z,62.50
2018-05-21T04:43:41.764Z,62.60
2018-05-21T04:46:08.557Z,61.40
2018-05-21T04:48:35.704Z,60.50
2018-05-21T04:51:02.880Z,61.40
2018-05-21T04:53:29.320Z,61.20
2018-05-21T04:55:55.687Z,59.90
2018-05-21T04:58:22.363Z,59.20
2018-05-21T05:00:48.816Z,58.70
2018-05-21T05:03:15.214Z,58.50
2018-05-21T05:05:42.367Z,57.90
2018-05-21T05:08:09.541Z,57.60
2018-05-21T05:10:36.268Z,57.60
2018-05-21T05:13:02.679Z,57.20
2018-05-21T05:15:29.782Z,56.50
2018-05-21T05:17:56.216Z,56.50
2018-05-21T05:20:22.579Z,56.30
2018-05-21T05:22:50.446Z,55.50
2018-05-21T05:25:16.846Z,55.50
2018-05-21T05:27:43.199Z,55.20
2018-05-21T05:30:09.896Z,55.20
2018-05-21T05:32:36.524Z,55.00
2018-05-21T05:35:03.725Z,54.80
2018-05-21T05:37:30.149Z,54.80
2018-05-21T05:39:56.548Z,54.20
2018-05-21T05:42:22.939Z,53.80
2018-05-21T05:44:49.321Z,53.90
2018-05-21T05:47:15.744Z,53.90
2018-05-21T05:49:42.149Z,53.70
2018-05-21T05:52:09.310Z,52.40
2018-05-21T05:54:35.729Z,52.40
2018-05-21T05:57:02.908Z,52.60
2018-05-21T05:59:29.312Z,52.60
2018-05-21T06:01:56.495Z,51.90
2018-05-21T06:04:23.131Z,51.90
2018-05-21T06:06:49.535Z,51.60
2018-05-21T06:09:16.634Z,51.30
2018-05-21T06:11:43.046Z,51.30
2018-05-21T06:14:09.672Z,51.60
2018-05-21T06:16:36.323Z,51.60
2018-05-21T06:19:02.726Z,49.50
2018-05-21T06:21:29.936Z,50.80
2018-05-21T06:23:56.273Z,51.30
2018-05-21T06:26:22.657Z,50.60
2018-05-21T06:28:49.012Z,49.80
2018-05-21T06:31:15.459Z,50.30
2018-05-21T06:33:41.865Z,49.40
2018-05-21T06:36:08.295Z,50.00
2018-05-21T06:38:34.808Z,49.20
2018-05-21T06:41:01.981Z,48.50
2018-05-21T06:43:28.394Z,48.50
2018-05-21T06:45:55.760Z,48.00
2018-05-21T06:48:22.368Z,48.00
2018-05-21T06:50:48.740Z,48.20
2018-05-21T06:53:15.177Z,49.60
2018-05-21T06:55:41.555Z,47.90
2018-05-21T06:58:07.998Z,47.40
2018-05-21T07:00:34.490Z,46.60
2018-05-21T07:03:00.867Z,46.70
2018-05-21T07:05:27.287Z,47.30
2018-05-21T07:07:53.757Z,47.20
2018-05-21T07:10:20.875Z,46.40
2018-05-21T07:12:48.042Z,45.80
2018-05-21T07:15:15.196Z,45.90
2018-05-21T07:17:42.319Z,45.90
2018-05-21T07:20:08.735Z,45.90
2018-05-21T07:22:35.106Z,45.90
2018-05-21T07:25:02.248Z,46.10
2018-05-21T07:27:28.790Z,46.00
2018-05-21T07:29:55.942Z,46.00
2018-05-21T07:32:23.058Z,45.60
2018-05-21T07:34:49.493Z,44.90
2018-05-21T07:37:15.931Z,45.20
2018-05-21T07:39:42.324Z,44.90
2018-05-21T07:42:08.748Z,45.40
2018-05-21T07:44:35.123Z,44.40
2018-05-21T07:47:01.511Z,43.90
2018-05-21T07:49:27.893Z,44.00
2018-05-21T07:51:54.993Z,44.10
2018-05-21T07:54:21.434Z,44.10
2018-05-21T07:56:47.876Z,44.30
2018-05-21T07:59:14.276Z,44.10
2018-05-21T08:01:41.490Z,44.20
2018-05-21T08:04:07.874Z,44.20
2018-05-21T08:06:34.311Z,43.90
2018-05-21T08:09:00.843Z,43.60
2018-05-21T08:11:27.216Z,42.90
2018-05-21T08:13:53.612Z,43.30
2018-05-21T08:16:20.081Z,42.90
2018-05-21T08:18:46.493Z,42.00
2018-05-21T08:21:12.957Z,42.80
2018-05-21T08:23:39.629Z,43.00
2018-05-21T08:26:06.785Z,43.80
2018-05-21T08:28:33.275Z,43.70
2018-05-21T08:30:59.738Z,42.70
2018-05-21T08:33:26.893Z,42.20
2018-05-21T08:35:54.067Z,42.50
2018-05-21T08:38:20.474Z,42.40
2018-05-21T08:40:47.595Z,42.50
2018-05-21T08:43:14.076Z,42.50
2018-05-21T08:45:40.498Z,42.50
2018-05-21T08:48:07.747Z,42.00
2018-05-21T08:50:34.911Z,42.00
2018-05-21T08:53:01.387Z,42.00
2018-05-21T08:55:27.795Z,41.70
2018-05-21T08:57:54.296Z,40.70
2018-05-21T09:00:21.542Z,41.80
2018-05-21T09:02:47.897Z,41.80
2018-05-21T09:05:14.641Z,42.40
2018-05-21T09:07:41.079Z,41.70
2018-05-21T09:10:07.865Z,41.30
2018-05-21T09:12:34.326Z,41.00
2018-05-21T09:15:00.779Z,40.60
2018-05-21T09:17:27.209Z,40.80
2018-05-21T09:19:53.601Z,41.20
2018-05-21T09:22:20.000Z,41.10
2018-05-21T09:24:46.382Z,42.00
2018-05-21T09:27:13.582Z,39.20
2018-05-21T09:29:40.034Z,39.20
2018-05-21T09:32:06.422Z,39.10
2018-05-21T09:34:32.888Z,39.30
2018-05-21T09:37:00.550Z,39.90
2018-05-21T09:39:27.450Z,39.60
2018-05-21T09:41:53.958Z,38.70
2018-05-21T09:44:20.541Z,38.30
2018-05-21T09:46:46.929Z,38.90
2018-05-21T09:49:13.346Z,38.40
2018-05-21T09:51:39.734Z,37.40
2018-05-21T09:54:06.117Z,37.90
2018-05-21T09:56:32.514Z,37.30
2018-05-21T09:58:58.861Z,37.30
2018-05-21T10:01:25.287Z,37.30
2018-05-21T10:03:51.927Z,37.70
2018-05-21T10:06:18.377Z,37.50
2018-05-21T10:08:45.083Z,38.20
2018-05-21T10:11:11.502Z,37.80
2018-05-21T10:13:38.288Z,37.20
2018-05-21T10:16:04.684Z,36.70
2018-05-21T10:18:31.732Z,37.20
2018-05-21T10:20:58.553Z,36.20
2018-05-21T10:23:25.684Z,35.60
2018-05-21T10:25:52.826Z,36.40
2018-05-21T10:28:19.232Z,36.30
2018-05-21T10:30:45.602Z,36.00
2018-05-21T10:33:12.760Z,35.50
2018-05-21T10:35:39.935Z,34.90
2018-05-21T10:38:06.331Z,34.90
2018-05-21T10:40:32.721Z,35.00
2018-05-21T10:42:59.122Z,34.60
2018-05-21T10:45:25.651Z,35.20
2018-05-21T10:47:52.013Z,35.50
2018-05-21T10:50:18.424Z,34.90
2018-05-21T10:52:44.833Z,35.00
2018-05-21T10:55:11.950Z,35.40
2018-05-21T10:57:38.675Z,35.30
2018-05-21T11:00:05.274Z,36.00
2018-05-21T11:02:32.404Z,35.50
2018-05-21T11:04:59.573Z,35.30
2018-05-21T11:07:26.922Z,35.70
2018-05-21T11:09:54.150Z,34.90
2018-05-21T11:12:20.526Z,34.80
2018-05-21T11:14:46.989Z,34.80
2018-05-21T11:17:13.351Z,35.10
2018-05-21T11:19:39.788Z,35.10
2018-05-21T11:22:06.285Z,35.30
2018-05-21T11:24:32.661Z,34.30
2018-05-21T11:26:59.808Z,32.20
2018-05-21T11:29:26.969Z,31.90
2018-05-21T11:31:54.342Z,31.60
2018-05-21T11:34:20.756Z,31.50
2018-05-21T11:36:47.866Z,31.90
2018-05-21T11:39:14.549Z,31.90
2018-05-21T11:41:40.966Z,31.20
2018-05-21T11:44:08.107Z,32.60
2018-05-21T11:46:34.490Z,31.90
2018-05-21T11:49:00.945Z,31.50
2018-05-21T11:51:27.471Z,31.50
2018-05-21T11:53:53.833Z,31.10
2018-05-21T11:56:20.300Z,31.00
2018-05-21T11:58:46.739Z,31.40
2018-05-21T12:01:13.866Z,32.00
2018-05-21T12:03:41.047Z,30.60
2018-05-21T12:06:07.493Z,30.80
2018-05-21T12:08:33.934Z,30.90
2018-05-21T12:11:00.397Z,30.10
2018-05-21T12:13:26.883Z,29.10
2018-05-21T12:15:53.285Z,29.80
2018-05-21T12:18:20.405Z,29.50
2018-05-21T12:20:46.810Z,29.40
2018-05-21T12:23:13.173Z,29.40
2018-05-21T12:25:39.598Z,29.00
2018-05-21T12:28:06.056Z,29.90
2018-05-21T12:30:33.195Z,29.90
2018-05-21T12:32:59.688Z,29.20
2018-05-21T12:35:26.057Z,29.50
2018-05-21T12:37:53.224Z,27.80
2018-05-21T12:40:20.406Z,27.10
2018-05-21T12:42:46.892Z,27.00
2018-05-21T12:45:13.318Z,28.00
2018-05-21T12:47:40.220Z,28.50
2018-05-21T12:50:07.720Z,29.10
2018-05-21T12:52:34.122Z,29.10
2018-05-21T12:55:00.482Z,27.40
2018-05-21T12:57:27.002Z,26.70
2018-05-21T12:59:53.436Z,26.80
2018-05-21T13:02:20.129Z,26.70
2018-05-21T13:04:47.290Z,26.70
2018-05-21T13:07:13.766Z,26.80
2018-05-21T13:09:40.321Z,26.70
2018-05-21T13:12:06.784Z,27.30
2018-05-21T13:14:33.293Z,27.30
2018-05-21T13:16:59.710Z,26.80
2018-05-21T13:19:26.494Z,27.40
2018-05-21T13:21:53.710Z,28.10
2018-05-21T13:24:20.147Z,28.00
2018-05-21T13:26:48.680Z,27.00
2018-05-21T13:29:15.158Z,26.60
2018-05-21T13:31:41.726Z,26.70
2018-05-21T13:34:08.305Z,26.20
2018-05-21T13:36:34.741Z,25.40
2018-05-21T13:39:01.557Z,24.30
2018-05-21T13:41:28.028Z,22.90
2018-05-21T13:43:54.681Z,23.00
2018-05-21T13:46:22.123Z,23.20
2018-05-21T13:48:48.557Z,23.10
2018-05-21T13:51:14.921Z,22.60
2018-05-21T13:53:42.248Z,21.80
2018-05-21T13:56:08.796Z,21.80
2018-05-21T13:58:35.263Z,22.40
2018-05-21T14:01:01.613Z,21.20
2018-05-21T14:03:27.978Z,20.10
2018-05-21T14:05:54.589Z,21.10
2018-05-21T14:08:21.167Z,21.80
2018-05-21T14:10:47.655Z,22.00
2018-05-21T14:13:14.047Z,22.80
2018-05-21T14:15:41.198Z,23.30
2018-05-21T14:18:08.318Z,23.50
2018-05-21T14:20:34.851Z,23.40
2018-05-21T14:23:01.614Z,23.20
2018-05-21T14:25:28.865Z,24.40
2018-05-21T14:27:55.975Z,23.40
2018-05-21T14:30:22.428Z,23.40
2018-05-21T14:32:48.841Z,22.50
2018-05-21T14:35:15.372Z,22.00
2018-05-21T14:37:41.766Z,20.90
2018-05-21T14:40:08.920Z,19.20
2018-05-21T14:42:36.215Z,19.20
2018-05-21T14:45:02.663Z,19.20
2018-05-21T14:47:29.136Z,20.00
2018-05-21T14:49:56.634Z,19.00
2018-05-21T14:52:23.010Z,19.00
2018-05-21T14:54:49.777Z,18.80
2018-05-21T14:57:16.242Z,19.60
2018-05-21T14:59:42.618Z,20.60
2018-05-21T15:02:09.185Z,23.60
2018-05-21T15:04:35.510Z,23.60
2018-05-21T15:07:02.033Z,24.30
2018-05-21T15:09:29.191Z,25.40
2018-05-21T15:11:56.305Z,25.40
2018-05-21T15:14:23.369Z,25.30
2018-05-21T15:19:18.757Z,27.40
2018-05-21T15:21:45.224Z,27.50
2018-05-21T15:24:12.706Z,29.30
2018-05-21T15:26:39.075Z,29.30
2018-05-21T15:29:05.479Z,30.00
2018-05-21T15:31:31.967Z,31.20
2018-05-21T15:33:58.434Z,32.70
2018-05-21T15:36:26.331Z,33.80
2018-05-21T15:38:52.995Z,34.90
2018-05-21T15:41:19.486Z,35.00
2018-05-21T15:43:45.921Z,36.20
2018-05-21T15:46:12.387Z,36.60
2018-05-21T15:48:38.826Z,37.50
2018-05-21T15:51:05.318Z,38.30
2018-05-21T15:53:31.753Z,38.20
2018-05-21T15:55:58.202Z,38.50
2018-05-21T15:58:24.694Z,38.70
2018-05-21T16:00:51.938Z,39.80
2018-05-21T16:03:18.530Z,38.00
2018-05-21T16:05:44.995Z,39.80
2018-05-21T16:08:11.382Z,39.90
2018-05-21T16:10:37.846Z,40.40
2018-05-21T16:13:05.250Z,40.60
2018-05-21T16:15:31.752Z,40.60
2018-05-21T16:17:58.249Z,40.60
2018-05-21T16:20:24.597Z,41.00
2018-05-21T16:22:51.047Z,41.00
2018-05-21T16:25:17.539Z,40.60
2018-05-21T16:27:44.071Z,40.60
2018-05-21T16:30:10.623Z,40.30
2018-05-21T16:32:36.986Z,40.00
2018-05-21T16:35:03.544Z,40.10
2018-05-21T16:37:30.691Z,40.60
2018-05-21T16:39:57.927Z,40.80
2018-05-21T16:42:24.412Z,39.30
2018-05-21T16:44:50.883Z,40.10
2018-05-21T16:47:17.291Z,40.10
2018-05-21T16:49:43.673Z,40.40
2018-05-21T16:52:11.214Z,37.30
2018-05-21T16:54:37.752Z,37.30
2018-05-21T16:57:04.237Z,36.90
2018-05-21T16:59:30.639Z,32.20
2018-05-21T17:01:57.907Z,28.80
2018-05-21T17:04:25.286Z,28.90
2018-05-21T17:06:51.782Z,28.90
2018-05-21T17:09:19.288Z,27.00
2018-05-21T17:11:45.870Z,26.90
2018-05-21T17:14:13.269Z,26.20
2018-05-21T17:16:39.763Z,25.60
2018-05-21T17:19:07.122Z,26.20
2018-05-21T17:21:34.373Z,25.80
2018-05-21T17:24:02.556Z,25.90
2018-05-21T17:26:29.760Z,26.40
2018-05-21T17:28:56.129Z,26.40
2018-05-21T17:31:23.278Z,25.40
2018-05-21T17:33:50.404Z,25.50
2018-05-21T17:36:16.880Z,25.40
2018-05-21T17:38:43.288Z,25.90
2018-05-21T17:41:10.443Z,25.30
2018-05-21T17:43:37.586Z,25.40
2018-05-21T17:46:04.776Z,25.70
2018-05-21T17:48:31.221Z,25.70
2018-05-21T17:50:57.789Z,26.10
2018-05-21T17:53:24.481Z,26.70
2018-05-21T17:55:51.353Z,26.60
2018-05-21T17:58:18.099Z,27.10
2018-05-21T18:00:45.917Z,27.40
2018-05-21T18:03:12.680Z,28.00
2018-05-21T18:05:39.689Z,28.80
2018-05-21T18:08:08.788Z,30.00
2018-05-21T18:10:35.562Z,30.00
2018-05-21T18:13:02.060Z,30.60
2018-05-21T18:15:29.233Z,31.70
2018-05-21T18:17:55.868Z,31.70
2018-05-21T18:20:22.298Z,32.90
2018-05-21T18:22:48.931Z,33.90
2018-05-21T18:25:16.067Z,34.50
2018-05-21T18:27:43.267Z,34.50
2018-05-21T18:30:09.779Z,34.40
2018-05-21T18:32:36.329Z,34.50
2018-05-21T18:35:02.846Z,34.40
2018-05-21T18:37:29.594Z,34.70
2018-05-21T18:39:56.057Z,35.80
2018-05-21T18:42:22.846Z,36.80
2018-05-21T18:44:49.447Z,37.90
2018-05-21T18:47:16.640Z,41.30
2018-05-21T18:49:44.015Z,40.70
2018-05-21T18:52:10.567Z,40.70
2018-05-21T18:54:37.098Z,41.40
2018-05-21T18:57:03.810Z,42.00
2018-05-21T18:59:31.317Z,42.80
2018-05-21T19:01:57.770Z,42.70
2018-05-21T19:04:24.460Z,42.40
2018-05-21T19:06:51.307Z,43.40
2018-05-21T19:09:17.745Z,43.20
2018-05-21T19:11:45.382Z,42.40
2018-05-21T19:14:11.917Z,42.80
2018-05-21T19:16:38.487Z,43.20
2018-05-21T19:19:04.967Z,43.70
2018-05-21T19:21:32.144Z,45.30
2018-05-21T19:23:59.266Z,45.20
2018-05-21T19:26:25.961Z,45.60
2018-05-21T19:28:52.473Z,45.80
2018-05-21T19:31:19.052Z,46.90
2018-05-21T19:33:45.879Z,46.20
2018-05-21T19:36:12.713Z,45.30
2018-05-21T19:38:39.142Z,47.00
2018-05-21T19:41:06.195Z,46.90
2018-05-21T19:43:32.597Z,46.80
2018-05-21T19:45:59.097Z,46.70
2018-05-21T19:48:26.387Z,48.30
2018-05-21T19:50:52.860Z,48.20
2018-05-21T19:53:20.491Z,48.70
2018-05-21T19:55:47.935Z,50.10
2018-05-21T19:58:15.471Z,49.90
2018-05-21T20:00:42.838Z,51.00
2018-05-21T20:03:09.240Z,51.00
2018-05-21T20:05:36.709Z,51.50
2018-05-21T20:08:04.693Z,51.20
2018-05-21T20:10:31.544Z,51.20
2018-05-21T20:12:58.038Z,52.20
2018-05-21T20:15:24.746Z,52.00
2018-05-21T20:17:51.284Z,51.60
2018-05-21T20:20:17.921Z,52.40
2018-05-21T20:22:44.626Z,52.00
2018-05-21T20:25:11.012Z,52.00
2018-05-21T20:27:37.526Z,53.10
2018-05-21T20:30:03.980Z,52.80
2018-05-21T20:32:30.498Z,53.40
2018-05-21T20:34:57.196Z,53.20
2018-05-21T20:37:23.763Z,53.80
2018-05-21T20:39:50.229Z,53.90
2018-05-21T20:42:16.687Z,53.00
2018-05-21T20:44:43.087Z,53.00
2018-05-21T20:47:10.909Z,52.40
2018-05-21T20:49:37.386Z,52.60
2018-05-21T20:52:03.754Z,53.10
2018-05-21T20:54:30.979Z,55.80
2018-05-21T20:56:57.389Z,55.70
2018-05-21T20:59:25.736Z,56.60
2018-05-21T21:01:53.657Z,58.50
2018-05-21T21:04:22.183Z,58.90
2018-05-21T21:06:50.309Z,58.50
2018-05-21T21:09:18.190Z,58.00
2018-05-21T21:11:45.763Z,58.10
2018-05-21T21:14:12.910Z,57.10
2018-05-21T21:16:40.104Z,55.90
2018-05-21T21:19:06.510Z,56.00
2018-05-21T21:21:32.880Z,53.70
2018-05-21T21:23:59.303Z,52.70
2018-05-21T21:26:25.982Z,51.50
2018-05-21T21:28:53.152Z,49.40
2018-05-21T21:31:20.304Z,49.70
2018-05-21T21:33:47.564Z,49.70
2018-05-21T21:36:13.949Z,49.50
2018-05-21T21:38:40.396Z,49.20
2018-05-21T21:41:07.061Z,49.80
2018-05-21T21:43:34.208Z,50.90
2018-05-21T21:46:01.354Z,50.40
2018-05-21T21:48:28.494Z,50.90
2018-05-21T21:50:55.697Z,52.50
2018-05-21T21:53:22.198Z,52.40
2018-05-21T21:55:48.691Z,54.80
2018-05-21T21:58:15.081Z,55.50
2018-05-21T22:00:41.531Z,57.00
2018-05-21T22:03:08.716Z,58.50
2018-05-21T22:05:35.193Z,58.60
2018-05-21T22:08:01.649Z,59.40
2018-05-21T22:10:28.187Z,58.10
2018-05-21T22:12:54.646Z,57.60
2018-05-21T22:15:21.084Z,57.60
2018-05-21T22:17:47.540Z,57.50
2018-05-21T22:20:13.984Z,58.20
2018-05-21T22:22:41.444Z,59.60
2018-05-21T22:25:14.718Z,59.60
2018-05-21T22:27:42.084Z,61.20
2018-05-21T22:30:09.402Z,61.50
2018-05-21T22:32:35.963Z,61.60
2018-05-21T22:35:03.220Z,62.60
2018-05-21T22:37:29.757Z,62.40
2018-05-21T22:39:57.083Z,64.40
2018-05-21T22:42:27.341Z,65.00
2018-05-21T22:44:53.746Z,64.90
2018-05-21T22:47:20.167Z,65.60
2018-05-21T22:49:46.752Z,65.60
2018-05-21T22:52:13.348Z,65.60
2018-05-21T22:54:39.766Z,64.80
2018-05-21T22:57:06.151Z,65.70
2018-05-21T22:59:32.522Z,64.40
2018-05-21T23:01:58.963Z,64.70
2018-05-21T23:04:25.388Z,64.70
2018-05-21T23:06:53.265Z,64.20
2018-05-21T23:09:19.661Z,64.10
2018-05-21T23:11:46.133Z,64.10
2018-05-21T23:14:13.391Z,64.50
2018-05-21T23:16:39.756Z,64.30
2018-05-21T23:19:06.151Z,65.00
2018-05-21T23:21:32.602Z,64.70
2018-05-21T23:23:59.218Z,64.70
2018-05-21T23:26:25.606Z,65.30
2018-05-21T23:28:52.455Z,65.40
2018-05-21T23:31:20.163Z,65.40
2018-05-21T23:33:47.665Z,65.30
2018-05-21T23:36:14.310Z,65.30
2018-05-21T23:38:40.722Z,66.30
2018-05-21T23:41:07.198Z,67.00
2018-05-21T23:43:33.660Z,67.40
2018-05-21T23:46:00.834Z,68.10
2018-05-21T23:48:28.080Z,69.20
2018-05-21T23:50:55.355Z,69.60
2018-05-21T23:53:21.856Z,69.50
2018-05-21T23:55:48.359Z,70.00
2018-05-21T23:58:14.860Z,70.60
